createdAt,value
2019-06-01T00:00:38.186Z,0.00
2019-06-01T00:01:38.311Z,0.00
2019-06-01T00:02:38.673Z,0.00
2019-06-01T00:03:38.309Z,0.00
2019-06-01T00:04:38.633Z,0.00
2019-06-01T00:05:38.463Z,0.00
2019-06-01T00:06:38.652Z,0.00
2019-06-01T00:07:38.741Z,0.00
2019-06-01T00:08:40.200Z,0.00
2019-06-01T00:09:38.984Z,0.00
2019-06-01T00:10:38.952Z,0.00
2019-06-01T00:11:39.203Z,0.00
2019-06-01T00:12:39.245Z,0.00
2019-06-01T00:13:39.441Z,0.00
2019-06-01T00:14:38.036Z,0.00
2019-06-01T00:15:38.024Z,0.00
2019-06-01T00:16:38.016Z,0.00
2019-06-01T00:17:38.002Z,0.00
2019-06-01T00:18:37.992Z,0.00
2019-06-01T00:19:37.997Z,0.00
2019-06-01T00:20:37.970Z,0.00
2019-06-01T00:21:37.961Z,0.00
2019-06-01T00:22:37.948Z,0.00
2019-06-01T00:23:37.938Z,0.00
2019-06-01T00:24:37.927Z,0.00
2019-06-01T00:25:37.918Z,0.00
2019-06-01T00:26:37.904Z,0.00
2019-06-01T00:27:37.895Z,0.00
2019-06-01T00:28:37.883Z,0.00
2019-06-01T00:29:37.873Z,0.00
2019-06-01T00:30:37.864Z,0.00
2019-06-01T00:31:37.853Z,0.00
2019-06-01T00:32:37.840Z,0.00
2019-06-01T00:33:37.830Z,0.00
2019-06-01T00:34:37.820Z,0.00
2019-06-01T00:35:37.808Z,0.00
2019-06-01T00:36:37.797Z,0.00
2019-06-01T00:37:37.790Z,0.00
2019-06-01T00:38:37.775Z,0.00
2019-06-01T00:39:37.764Z,0.00
2019-06-01T00:40:37.755Z,0.00
2019-06-01T00:41:37.744Z,0.00
2019-06-01T00:42:37.732Z,0.00
2019-06-01T00:43:37.724Z,0.00
2019-06-01T00:44:37.711Z,0.00
2019-06-01T00:45:37.700Z,0.00
2019-06-01T00:46:37.692Z,0.00
2019-06-01T00:47:37.678Z,0.00
2019-06-01T00:48:37.668Z,0.00
2019-06-01T00:49:37.659Z,0.00
2019-06-01T00:50:37.648Z,0.00
2019-06-01T00:51:37.635Z,0.00
2019-06-01T00:52:37.645Z,0.00
2019-06-01T00:53:37.614Z,0.00
2019-06-01T00:54:37.603Z,0.00
2019-06-01T00:55:37.593Z,0.00
2019-06-01T00:56:37.580Z,0.00
2019-06-01T00:57:37.570Z,0.00
2019-06-01T00:58:37.558Z,0.00
2019-06-01T00:59:37.549Z,0.00
2019-06-01T01:00:43.587Z,0.00
2019-06-01T01:01:38.529Z,0.00
2019-06-01T01:02:37.516Z,0.00
2019-06-01T01:03:37.507Z,0.00
2019-06-01T01:04:37.494Z,0.00
2019-06-01T01:05:37.484Z,0.00
2019-06-01T01:06:37.474Z,0.00
2019-06-01T01:07:38.291Z,0.00
2019-06-01T01:08:37.451Z,0.00
2019-06-01T01:09:37.442Z,0.00
2019-06-01T01:10:37.429Z,0.00
2019-06-01T01:11:37.422Z,0.00
2019-06-01T01:12:37.408Z,0.00
2019-06-01T01:13:37.422Z,0.00
2019-06-01T01:14:37.388Z,0.00
2019-06-01T01:15:37.392Z,0.00
2019-06-01T01:16:37.368Z,0.00
2019-06-01T01:17:37.355Z,0.00
2019-06-01T01:18:37.344Z,0.00
2019-06-01T01:19:37.333Z,0.00
2019-06-01T01:20:37.322Z,0.00
2019-06-01T01:21:37.314Z,0.00
2019-06-01T01:22:37.300Z,0.00
2019-06-01T01:23:37.291Z,0.00
2019-06-01T01:24:37.280Z,0.00
2019-06-01T01:25:37.269Z,0.00
2019-06-01T01:26:37.261Z,0.00
2019-06-01T01:27:37.248Z,0.00
2019-06-01T01:28:37.237Z,0.00
2019-06-01T01:29:37.227Z,0.00
2019-06-01T01:30:37.383Z,0.00
2019-06-01T01:31:37.205Z,0.00
2019-06-01T01:32:37.194Z,0.00
2019-06-01T01:33:37.184Z,0.00
2019-06-01T01:34:37.171Z,0.00
2019-06-01T01:35:37.161Z,0.00
2019-06-01T01:36:37.158Z,0.00
2019-06-01T01:37:37.139Z,0.00
2019-06-01T01:38:37.130Z,0.00
2019-06-01T01:39:37.118Z,0.00
2019-06-01T01:40:37.113Z,0.00
2019-06-01T01:41:37.097Z,0.00
2019-06-01T01:42:37.086Z,0.00
2019-06-01T01:43:37.076Z,0.00
2019-06-01T01:44:37.065Z,0.00
2019-06-01T01:45:37.054Z,0.00
2019-06-01T01:46:37.043Z,0.00
2019-06-01T01:47:37.033Z,0.00
2019-06-01T01:48:37.028Z,0.00
2019-06-01T01:49:37.009Z,0.00
2019-06-01T01:50:37.001Z,0.00
2019-06-01T01:51:36.989Z,0.00
2019-06-01T01:52:39.527Z,0.00
2019-06-01T01:53:36.966Z,0.00
2019-06-01T01:54:36.953Z,0.00
2019-06-01T01:55:36.946Z,0.00
2019-06-01T01:56:36.933Z,0.00
2019-06-01T01:57:36.926Z,0.00
2019-06-01T01:58:36.914Z,0.00
2019-06-01T01:59:36.904Z,0.00
2019-06-01T02:00:36.904Z,0.00
2019-06-01T02:01:36.881Z,0.00
2019-06-01T02:02:36.876Z,0.00
2019-06-01T02:03:36.859Z,0.00
2019-06-01T02:04:36.855Z,0.00
2019-06-01T02:05:36.845Z,0.00
2019-06-01T02:06:36.829Z,0.00
2019-06-01T02:07:36.816Z,4.00
2019-06-01T02:08:36.811Z,4.00
2019-06-01T02:09:36.841Z,0.00
2019-06-01T02:10:36.785Z,0.00
2019-06-01T02:11:36.779Z,4.00
2019-06-01T02:12:36.762Z,4.00
2019-06-01T02:13:36.763Z,4.00
2019-06-01T02:14:36.742Z,4.00
2019-06-01T02:15:36.732Z,4.00
2019-06-01T02:16:36.733Z,4.00
2019-06-01T02:17:36.707Z,8.00
2019-06-01T02:18:36.699Z,4.00
2019-06-01T02:19:36.724Z,8.00
2019-06-01T02:20:36.675Z,8.00
2019-06-01T02:21:36.675Z,12.00
2019-06-01T02:22:36.659Z,12.00
2019-06-01T02:23:36.644Z,12.00
2019-06-01T02:24:36.635Z,12.00
2019-06-01T02:25:36.623Z,16.00
2019-06-01T02:26:36.610Z,16.00
2019-06-01T02:27:36.607Z,20.00
2019-06-01T02:28:36.591Z,20.00
2019-06-01T02:29:36.578Z,24.00
2019-06-01T02:30:36.568Z,28.00
2019-06-01T02:31:42.151Z,32.00
2019-06-01T02:32:37.558Z,32.00
2019-06-01T02:33:36.537Z,36.00
2019-06-01T02:34:36.529Z,44.00
2019-06-01T02:35:36.523Z,44.00
2019-06-01T02:36:36.504Z,52.00
2019-06-01T02:37:36.502Z,60.00
2019-06-01T02:38:36.502Z,64.00
2019-06-01T02:39:36.474Z,68.00
2019-06-01T02:40:36.468Z,76.00
2019-06-01T02:41:36.451Z,88.00
2019-06-01T02:42:36.442Z,92.00
2019-06-01T02:43:36.430Z,100.00
2019-06-01T02:44:36.418Z,108.00
2019-06-01T02:45:36.415Z,116.00
2019-06-01T02:46:36.466Z,124.00
2019-06-01T02:47:36.393Z,136.00
2019-06-01T02:48:36.376Z,144.00
2019-06-01T02:49:36.368Z,156.00
2019-06-01T02:50:36.455Z,168.00
2019-06-01T02:51:36.378Z,184.00
2019-06-01T02:52:36.331Z,192.00
2019-06-01T02:53:36.332Z,204.00
2019-06-01T02:54:36.313Z,224.00
2019-06-01T02:55:36.301Z,236.00
2019-06-01T02:56:36.290Z,252.00
2019-06-01T02:57:36.277Z,268.00
2019-06-01T02:58:36.268Z,288.00
2019-06-01T02:59:36.261Z,308.00
2019-06-01T03:00:36.245Z,328.00
2019-06-01T03:01:36.260Z,348.00
2019-06-01T03:02:36.228Z,368.00
2019-06-01T03:03:36.212Z,388.00
2019-06-01T03:04:36.203Z,412.00
2019-06-01T03:05:36.191Z,432.00
2019-06-01T03:06:36.180Z,456.00
2019-06-01T03:07:36.170Z,480.00
2019-06-01T03:08:36.161Z,508.00
2019-06-01T03:09:36.147Z,536.00
2019-06-01T03:10:36.138Z,564.00
2019-06-01T03:11:36.126Z,596.00
2019-06-01T03:12:36.115Z,632.00
2019-06-01T03:13:36.106Z,660.00
2019-06-01T03:14:36.100Z,696.00
2019-06-01T03:15:36.084Z,732.00
2019-06-01T03:16:39.388Z,768.00
2019-06-01T03:17:36.059Z,804.00
2019-06-01T03:18:36.051Z,836.00
2019-06-01T03:19:36.040Z,864.00
2019-06-01T03:20:36.029Z,896.00
2019-06-01T03:21:36.017Z,924.00
2019-06-01T03:22:36.012Z,956.00
2019-06-01T03:23:35.996Z,988.00
2019-06-01T03:24:35.985Z,1016.00
2019-06-01T03:25:35.974Z,1048.00
2019-06-01T03:26:35.964Z,1080.00
2019-06-01T03:27:35.952Z,1108.00
2019-06-01T03:28:35.945Z,1140.00
2019-06-01T03:29:35.930Z,1168.00
2019-06-01T03:30:35.922Z,1200.00
2019-06-01T03:31:35.910Z,1236.00
2019-06-01T03:32:37.552Z,1268.00
2019-06-01T03:33:35.886Z,1300.00
2019-06-01T03:34:35.877Z,1336.00
2019-06-01T03:35:35.868Z,1360.00
2019-06-01T03:36:35.855Z,1388.00
2019-06-01T03:37:35.845Z,1412.00
2019-06-01T03:38:35.834Z,1440.00
2019-06-01T03:39:35.823Z,1468.00
2019-06-01T03:40:35.811Z,1504.00
2019-06-01T03:41:35.801Z,1540.00
2019-06-01T03:42:35.793Z,1572.00
2019-06-01T03:43:35.780Z,1608.00
2019-06-01T03:44:35.769Z,1640.00
2019-06-01T03:45:35.758Z,1672.00
2019-06-01T03:46:35.749Z,1704.00
2019-06-01T03:47:35.737Z,1740.00
2019-06-01T03:48:35.727Z,1776.00
2019-06-01T03:49:35.722Z,1824.00
2019-06-01T03:50:35.715Z,1876.00
2019-06-01T03:51:35.695Z,1932.00
2019-06-01T03:52:35.685Z,1992.00
2019-06-01T03:53:35.673Z,2052.00
2019-06-01T03:54:35.660Z,2120.00
2019-06-01T03:55:35.658Z,2160.00
2019-06-01T03:56:35.640Z,2196.00
2019-06-01T03:57:35.631Z,2224.00
2019-06-01T03:58:35.617Z,2248.00
2019-06-01T03:59:35.610Z,2272.00
2019-06-01T04:00:35.596Z,2304.00
2019-06-01T04:01:35.585Z,2336.00
2019-06-01T04:02:35.590Z,2376.00
2019-06-01T04:03:35.564Z,2424.00
2019-06-01T04:04:35.553Z,2468.00
2019-06-01T04:05:35.543Z,2520.00
2019-06-01T04:06:35.532Z,2580.00
2019-06-01T04:07:38.691Z,2636.00
2019-06-01T04:08:35.512Z,2672.00
2019-06-01T04:09:35.500Z,2704.00
2019-06-01T04:10:35.489Z,2748.00
2019-06-01T04:11:35.479Z,2792.00
2019-06-01T04:12:35.465Z,2836.00
2019-06-01T04:13:35.456Z,2880.00
2019-06-01T04:14:35.445Z,2904.00
2019-06-01T04:15:35.434Z,2928.00
2019-06-01T04:16:35.423Z,2944.00
2019-06-01T04:17:35.415Z,2968.00
2019-06-01T04:18:35.402Z,3020.00
2019-06-01T04:19:35.392Z,3092.00
2019-06-01T04:20:35.380Z,3136.00
2019-06-01T04:21:35.385Z,3176.00
2019-06-01T04:22:35.359Z,3216.00
2019-06-01T04:23:36.475Z,3256.00
2019-06-01T04:24:35.336Z,3276.00
2019-06-01T04:25:35.329Z,3316.00
2019-06-01T04:26:35.316Z,3348.00
2019-06-01T04:27:35.304Z,3428.00
2019-06-01T04:28:35.296Z,3484.00
2019-06-01T04:29:35.282Z,3524.00
2019-06-01T04:30:35.277Z,3584.00
2019-06-01T04:31:35.262Z,3636.00
2019-06-01T04:32:48.768Z,3708.00
2019-06-01T04:33:36.240Z,3804.00
2019-06-01T04:34:35.866Z,3932.00
2019-06-01T04:35:35.218Z,4080.00
2019-06-01T04:36:35.216Z,4304.00
2019-06-01T04:37:35.199Z,4520.00
2019-06-01T04:38:35.191Z,4684.00
2019-06-01T04:39:35.176Z,4812.00
2019-06-01T04:40:35.164Z,4792.00
2019-06-01T04:41:35.155Z,4704.00
2019-06-01T04:42:35.143Z,4704.00
2019-06-01T04:43:35.134Z,4820.00
2019-06-01T04:44:35.122Z,4972.00
2019-06-01T04:45:35.112Z,5160.00
2019-06-01T04:46:35.099Z,5352.00
2019-06-01T04:47:35.091Z,5700.00
2019-06-01T04:48:35.078Z,6104.00
2019-06-01T04:49:35.066Z,6576.00
2019-06-01T04:50:35.067Z,6964.00
2019-06-01T04:51:35.047Z,7172.00
2019-06-01T04:52:35.036Z,7180.00
2019-06-01T04:53:35.026Z,7140.00
2019-06-01T04:54:35.015Z,7072.00
2019-06-01T04:55:35.003Z,7104.00
2019-06-01T04:56:34.994Z,7156.00
2019-06-01T04:57:34.984Z,7080.00
2019-06-01T04:58:34.974Z,6784.00
2019-06-01T04:59:37.711Z,6392.00
2019-06-01T05:00:34.949Z,6064.00
2019-06-01T05:01:34.944Z,5872.00
2019-06-01T05:02:34.927Z,5716.00
2019-06-01T05:03:34.917Z,5604.00
2019-06-01T05:04:34.909Z,5396.00
2019-06-01T05:05:34.897Z,5324.00
2019-06-01T05:06:34.885Z,5544.00
2019-06-01T05:07:34.873Z,5660.00
2019-06-01T05:08:34.864Z,5832.00
2019-06-01T05:09:34.854Z,5952.00
2019-06-01T05:10:34.848Z,6220.00
2019-06-01T05:11:34.830Z,6260.00
2019-06-01T05:12:34.820Z,7184.00
2019-06-01T05:13:34.808Z,7852.00
2019-06-01T05:14:34.799Z,8444.00
2019-06-01T05:15:34.787Z,8580.00
2019-06-01T05:16:34.776Z,8868.00
2019-06-01T05:17:34.764Z,9060.00
2019-06-01T05:18:34.756Z,9104.00
2019-06-01T05:19:34.745Z,8892.00
2019-06-01T05:20:34.733Z,8816.00
2019-06-01T05:21:34.721Z,8740.00
2019-06-01T05:22:34.711Z,8744.00
2019-06-01T05:23:34.699Z,8532.00
2019-06-01T05:24:34.690Z,8444.00
2019-06-01T05:25:34.686Z,8204.00
2019-06-01T05:26:34.669Z,7892.00
2019-06-01T05:27:34.659Z,7864.00
2019-06-01T05:28:34.645Z,7800.00
2019-06-01T05:29:34.637Z,7832.00
2019-06-01T05:30:34.633Z,7732.00
2019-06-01T05:31:34.614Z,7544.00
2019-06-01T05:32:34.603Z,7420.00
2019-06-01T05:33:37.563Z,7328.00
2019-06-01T05:34:34.579Z,7184.00
2019-06-01T05:35:34.570Z,7104.00
2019-06-01T05:36:34.560Z,7180.00
2019-06-01T05:37:34.551Z,7344.00
2019-06-01T05:38:34.543Z,7436.00
2019-06-01T05:39:34.527Z,7360.00
2019-06-01T05:40:34.517Z,6900.00
2019-06-01T05:41:34.506Z,6560.00
2019-06-01T05:42:34.494Z,6540.00
2019-06-01T05:43:34.486Z,6552.00
2019-06-01T05:44:34.474Z,6588.00
2019-06-01T05:45:34.471Z,6760.00
2019-06-01T05:46:34.463Z,7024.00
2019-06-01T05:47:34.442Z,7232.00
2019-06-01T05:48:34.434Z,7356.00
2019-06-01T05:49:34.422Z,7592.00
2019-06-01T05:50:34.410Z,7480.00
2019-06-01T05:51:34.400Z,7392.00
2019-06-01T05:52:34.390Z,7636.00
2019-06-01T05:53:34.377Z,7924.00
2019-06-01T05:54:34.367Z,8036.00
2019-06-01T05:55:34.356Z,8140.00
2019-06-01T05:56:34.347Z,8164.00
2019-06-01T05:57:34.334Z,8164.00
2019-06-01T05:58:34.325Z,8128.00
2019-06-01T05:59:34.314Z,8224.00
2019-06-01T06:00:34.305Z,8428.00
2019-06-01T06:01:34.293Z,8828.00
2019-06-01T06:02:34.280Z,9220.00
2019-06-01T06:03:40.393Z,9532.00
2019-06-01T06:04:35.259Z,9680.00
2019-06-01T06:05:34.249Z,9820.00
2019-06-01T06:06:34.236Z,10132.00
2019-06-01T06:07:34.227Z,10452.00
2019-06-01T06:08:34.217Z,10560.00
2019-06-01T06:09:34.319Z,10688.00
2019-06-01T06:10:34.195Z,10932.00
2019-06-01T06:11:34.187Z,11344.00
2019-06-01T06:12:34.180Z,13768.00
2019-06-01T06:13:34.165Z,11416.00
2019-06-01T06:14:34.152Z,11160.00
2019-06-01T06:15:34.143Z,11148.00
2019-06-01T06:16:34.133Z,11240.00
2019-06-01T06:17:34.119Z,10272.00
2019-06-01T06:18:34.119Z,10212.00
2019-06-01T06:19:34.099Z,10396.00
2019-06-01T06:20:34.091Z,11512.00
2019-06-01T06:21:34.090Z,9768.00
2019-06-01T06:22:34.067Z,9520.00
2019-06-01T06:23:34.056Z,9540.00
2019-06-01T06:24:34.047Z,9776.00
2019-06-01T06:25:36.365Z,10172.00
2019-06-01T06:26:34.027Z,10640.00
2019-06-01T06:27:34.013Z,11240.00
2019-06-01T06:28:34.002Z,11660.00
2019-06-01T06:29:33.992Z,11768.00
2019-06-01T06:30:33.981Z,12140.00
2019-06-01T06:31:33.970Z,12156.00
2019-06-01T06:32:33.961Z,13032.00
2019-06-01T06:33:36.868Z,11896.00
2019-06-01T06:34:33.943Z,11168.00
2019-06-01T06:35:33.936Z,11968.00
2019-06-01T06:36:33.916Z,9896.00
2019-06-01T06:37:33.905Z,9428.00
2019-06-01T06:38:33.895Z,9128.00
2019-06-01T06:39:33.888Z,9288.00
2019-06-01T06:40:33.875Z,9732.00
2019-06-01T06:41:33.863Z,10444.00
2019-06-01T06:42:33.852Z,11216.00
2019-06-01T06:43:33.846Z,11504.00
2019-06-01T06:44:33.830Z,11264.00
2019-06-01T06:45:33.820Z,11316.00
2019-06-01T06:46:33.810Z,12360.00
2019-06-01T06:47:33.802Z,14168.00
2019-06-01T06:48:33.805Z,17824.00
2019-06-01T06:49:33.779Z,15984.00
2019-06-01T06:50:33.773Z,16768.00
2019-06-01T06:51:33.757Z,12764.00
2019-06-01T06:52:33.762Z,11356.00
2019-06-01T06:53:35.473Z,10552.00
2019-06-01T06:54:33.722Z,9988.00
2019-06-01T06:55:33.714Z,9660.00
2019-06-01T06:56:33.704Z,10400.00
2019-06-01T06:57:33.690Z,11084.00
2019-06-01T06:58:33.682Z,11424.00
2019-06-01T06:59:33.683Z,11860.00
2019-06-01T07:00:33.668Z,13192.00
2019-06-01T07:01:33.664Z,15220.00
2019-06-01T07:02:33.655Z,22112.00
2019-06-01T07:03:33.628Z,22368.00
2019-06-01T07:04:33.628Z,19616.00
2019-06-01T07:05:33.615Z,16444.00
2019-06-01T07:06:33.599Z,21408.00
2019-06-01T07:07:33.585Z,21088.00
2019-06-01T07:08:33.578Z,20928.00
2019-06-01T07:09:33.566Z,18656.00
2019-06-01T07:10:33.553Z,21216.00
2019-06-01T07:11:33.542Z,19776.00
2019-06-01T07:12:33.532Z,23744.00
2019-06-01T07:13:33.534Z,25920.00
2019-06-01T07:14:33.509Z,26432.00
2019-06-01T07:15:33.501Z,23360.00
2019-06-01T07:16:33.496Z,20256.00
2019-06-01T07:17:33.478Z,17248.00
2019-06-01T07:18:33.484Z,16812.00
2019-06-01T07:19:33.456Z,16948.00
2019-06-01T07:20:33.447Z,20160.00
2019-06-01T07:21:33.446Z,23520.00
2019-06-01T07:22:33.480Z,15816.00
2019-06-01T07:23:33.418Z,15984.00
2019-06-01T07:24:33.418Z,18016.00
2019-06-01T07:25:33.409Z,21248.00
2019-06-01T07:26:33.409Z,22592.00
2019-06-01T07:27:33.374Z,21152.00
2019-06-01T07:28:33.380Z,21952.00
2019-06-01T07:29:33.353Z,22816.00
2019-06-01T07:30:49.453Z,22816.00
2019-06-01T07:31:34.329Z,21952.00
2019-06-01T07:32:33.320Z,23264.00
2019-06-01T07:33:33.311Z,23040.00
2019-06-01T07:34:41.516Z,21440.00
2019-06-01T07:35:34.288Z,22400.00
2019-06-01T07:36:33.281Z,22080.00
2019-06-01T07:37:33.270Z,22528.00
2019-06-01T07:38:33.320Z,22208.00
2019-06-01T07:39:33.549Z,23648.00
2019-06-01T07:40:33.237Z,24128.00
2019-06-01T07:41:33.225Z,24352.00
2019-06-01T07:42:33.230Z,23680.00
2019-06-01T07:43:33.398Z,24928.00
2019-06-01T07:44:33.325Z,25088.00
2019-06-01T07:45:35.196Z,26208.00
2019-06-01T07:46:33.294Z,27520.00
2019-06-01T07:47:34.094Z,26592.00
2019-06-01T07:48:33.504Z,26784.00
2019-06-01T07:49:33.162Z,25376.00
2019-06-01T07:50:33.131Z,31104.00
2019-06-01T07:51:33.119Z,29056.00
2019-06-01T07:52:33.117Z,21056.00
2019-06-01T07:53:33.099Z,24448.00
2019-06-01T07:54:33.089Z,18144.00
2019-06-01T07:55:33.081Z,26336.00
2019-06-01T07:56:33.071Z,26112.00
2019-06-01T07:57:33.057Z,24704.00
2019-06-01T07:58:33.049Z,27040.00
2019-06-01T07:59:33.035Z,26976.00
2019-06-01T08:00:33.294Z,28672.00
2019-06-01T08:01:33.066Z,30880.00
2019-06-01T08:02:33.139Z,33376.00
2019-06-01T08:03:34.945Z,27008.00
2019-06-01T08:04:50.669Z,28128.00
2019-06-01T08:05:33.973Z,37088.00
2019-06-01T08:06:32.963Z,34624.00
2019-06-01T08:07:32.956Z,31744.00
2019-06-01T08:08:32.943Z,28672.00
2019-06-01T08:09:32.934Z,32384.00
2019-06-01T08:10:32.922Z,22112.00
2019-06-01T08:11:35.121Z,19904.00
2019-06-01T08:12:32.903Z,28928.00
2019-06-01T08:13:35.415Z,25152.00
2019-06-01T08:14:32.969Z,22688.00
2019-06-01T08:15:32.869Z,27168.00
2019-06-01T08:16:32.862Z,22304.00
2019-06-01T08:17:32.847Z,25248.00
2019-06-01T08:18:32.841Z,19584.00
2019-06-01T08:19:32.828Z,22912.00
2019-06-01T08:20:32.816Z,30016.00
2019-06-01T08:21:32.807Z,29856.00
2019-06-01T08:22:32.793Z,29600.00
2019-06-01T08:23:32.787Z,29120.00
2019-06-01T08:24:32.775Z,28640.00
2019-06-01T08:25:32.901Z,31072.00
2019-06-01T08:26:32.805Z,32320.00
2019-06-01T08:27:32.748Z,26528.00
2019-06-01T08:28:32.838Z,29568.00
2019-06-01T08:29:32.912Z,28992.00
2019-06-01T08:30:32.795Z,26560.00
2019-06-01T08:31:33.649Z,26208.00
2019-06-01T08:32:32.945Z,25344.00
2019-06-01T08:33:34.817Z,27008.00
2019-06-01T08:34:33.133Z,28320.00
2019-06-01T08:35:33.215Z,29408.00
2019-06-01T08:36:33.889Z,30016.00
2019-06-01T08:37:33.593Z,30560.00
2019-06-01T08:38:33.787Z,30464.00
2019-06-01T08:39:34.226Z,31008.00
2019-06-01T08:40:33.534Z,31232.00
2019-06-01T08:41:33.690Z,30912.00
2019-06-01T08:42:33.713Z,31872.00
2019-06-01T08:43:33.834Z,32544.00
2019-06-01T08:44:33.671Z,32096.00
2019-06-01T08:45:35.887Z,32384.00
2019-06-01T08:46:33.700Z,33024.00
2019-06-01T08:47:33.940Z,33536.00
2019-06-01T08:48:32.533Z,34688.00
2019-06-01T08:49:32.740Z,33856.00
2019-06-01T08:50:32.512Z,32608.00
2019-06-01T08:51:32.508Z,32736.00
2019-06-01T08:52:32.497Z,32608.00
2019-06-01T08:53:32.483Z,32608.00
2019-06-01T08:54:32.476Z,31936.00
2019-06-01T08:55:32.467Z,30496.00
2019-06-01T08:56:32.462Z,29280.00
2019-06-01T08:57:32.539Z,30816.00
2019-06-01T08:58:32.571Z,31008.00
2019-06-01T08:59:32.615Z,31424.00
2019-06-01T09:00:32.664Z,32256.00
2019-06-01T09:01:32.827Z,31616.00
2019-06-01T09:02:32.824Z,33952.00
2019-06-01T09:03:33.794Z,35712.00
2019-06-01T09:04:32.823Z,35040.00
2019-06-01T09:05:33.128Z,36448.00
2019-06-01T09:06:33.180Z,36736.00
2019-06-01T09:07:33.178Z,35104.00
2019-06-01T09:08:33.241Z,34400.00
2019-06-01T09:09:33.140Z,33632.00
2019-06-01T09:10:33.267Z,29888.00
2019-06-01T09:11:33.283Z,33216.00
2019-06-01T09:12:33.287Z,30624.00
2019-06-01T09:13:33.290Z,30240.00
2019-06-01T09:14:33.474Z,30816.00
2019-06-01T09:15:33.656Z,33248.00
2019-06-01T09:16:33.489Z,36640.00
2019-06-01T09:17:33.429Z,36288.00
2019-06-01T09:18:33.574Z,33376.00
2019-06-01T09:19:33.489Z,33024.00
2019-06-01T09:20:35.840Z,35840.00
2019-06-01T09:21:33.570Z,35488.00
2019-06-01T09:22:32.214Z,34464.00
2019-06-01T09:23:32.212Z,35328.00
2019-06-01T09:24:32.199Z,34752.00
2019-06-01T09:25:32.185Z,36736.00
2019-06-01T09:26:32.175Z,34464.00
2019-06-01T09:27:32.169Z,35520.00
2019-06-01T09:28:32.168Z,36256.00
2019-06-01T09:29:32.216Z,34560.00
2019-06-01T09:30:32.197Z,35648.00
2019-06-01T09:31:32.483Z,34528.00
2019-06-01T09:32:32.325Z,35680.00
2019-06-01T09:33:32.252Z,35200.00
2019-06-01T09:34:32.462Z,36960.00
2019-06-01T09:35:50.124Z,33248.00
2019-06-01T09:36:33.083Z,38560.00
2019-06-01T09:37:32.543Z,37152.00
2019-06-01T09:38:32.066Z,36736.00
2019-06-01T09:39:33.162Z,26496.00
2019-06-01T09:40:33.415Z,26112.00
2019-06-01T09:41:32.595Z,31648.00
2019-06-01T09:42:33.388Z,39456.00
2019-06-01T09:43:32.811Z,34432.00
2019-06-01T09:44:33.452Z,36160.00
2019-06-01T09:45:33.034Z,29088.00
2019-06-01T09:46:33.836Z,35680.00
2019-06-01T09:47:33.239Z,35712.00
2019-06-01T09:48:31.970Z,37152.00
2019-06-01T09:49:33.736Z,36640.00
2019-06-01T09:50:31.952Z,36896.00
2019-06-01T09:51:31.940Z,37728.00
2019-06-01T09:52:31.944Z,36224.00
2019-06-01T09:53:32.550Z,34912.00
2019-06-01T09:54:33.075Z,32192.00
2019-06-01T09:55:32.677Z,32576.00
2019-06-01T09:56:34.011Z,32096.00
2019-06-01T09:57:32.028Z,36480.00
2019-06-01T09:58:32.300Z,33120.00
2019-06-01T09:59:32.032Z,36928.00
2019-06-01T10:00:32.389Z,39360.00
2019-06-01T10:01:32.390Z,41152.00
2019-06-01T10:02:32.108Z,28576.00
2019-06-01T10:03:32.438Z,39136.00
2019-06-01T10:04:32.281Z,31232.00
2019-06-01T10:05:32.386Z,35168.00
2019-06-01T10:06:32.510Z,36864.00
2019-06-01T10:07:32.814Z,29440.00
2019-06-01T10:08:32.559Z,28480.00
2019-06-01T10:09:31.763Z,38816.00
2019-06-01T10:10:31.901Z,37824.00
2019-06-01T10:11:32.620Z,38720.00
2019-06-01T10:12:31.931Z,40928.00
2019-06-01T10:13:32.937Z,40544.00
2019-06-01T10:14:32.145Z,40320.00
2019-06-01T10:15:32.473Z,40000.00
2019-06-01T10:16:32.730Z,36768.00
2019-06-01T10:17:33.193Z,39072.00
2019-06-01T10:18:32.752Z,38528.00
2019-06-01T10:19:32.602Z,37600.00
2019-06-01T10:20:33.190Z,36800.00
2019-06-01T10:21:32.065Z,38720.00
2019-06-01T10:22:32.735Z,40608.00
2019-06-01T10:23:32.362Z,39328.00
2019-06-01T10:24:31.623Z,39392.00
2019-06-01T10:25:32.412Z,37760.00
2019-06-01T10:26:31.600Z,36416.00
2019-06-01T10:27:32.453Z,37568.00
2019-06-01T10:28:31.648Z,37088.00
2019-06-01T10:29:32.560Z,36160.00
2019-06-01T10:30:31.725Z,36672.00
2019-06-01T10:31:32.617Z,36384.00
2019-06-01T10:32:32.558Z,35904.00
2019-06-01T10:33:32.662Z,35712.00
2019-06-01T10:34:31.566Z,34976.00
2019-06-01T10:35:32.711Z,34560.00
2019-06-01T10:36:31.929Z,34080.00
2019-06-01T10:37:31.497Z,34528.00
2019-06-01T10:38:31.474Z,34528.00
2019-06-01T10:39:31.471Z,35104.00
2019-06-01T10:40:31.453Z,35296.00
2019-06-01T10:41:31.445Z,35328.00
2019-06-01T10:42:32.746Z,36352.00
2019-06-01T10:43:31.505Z,38208.00
2019-06-01T10:44:31.623Z,37984.00
2019-06-01T10:45:31.812Z,37568.00
2019-06-01T10:46:31.796Z,37664.00
2019-06-01T10:47:31.743Z,37920.00
2019-06-01T10:48:32.767Z,35264.00
2019-06-01T10:49:31.825Z,34944.00
2019-06-01T10:50:33.034Z,35328.00
2019-06-01T10:51:32.044Z,35360.00
2019-06-01T10:52:31.997Z,36128.00
2019-06-01T10:53:32.069Z,37216.00
2019-06-01T10:54:32.521Z,35424.00
2019-06-01T10:55:32.011Z,19520.00
2019-06-01T10:56:32.323Z,41024.00
2019-06-01T10:57:32.314Z,40160.00
2019-06-01T10:58:32.245Z,39808.00
2019-06-01T10:59:32.205Z,40672.00
2019-06-01T11:00:39.735Z,40640.00
2019-06-01T11:01:34.108Z,40544.00
2019-06-01T11:02:32.523Z,40320.00
2019-06-01T11:03:32.438Z,41440.00
2019-06-01T11:04:32.701Z,41696.00
2019-06-01T11:05:32.511Z,41440.00
2019-06-01T11:06:40.284Z,41632.00
2019-06-01T11:07:32.735Z,40480.00
2019-06-01T11:08:31.178Z,39680.00
2019-06-01T11:09:31.190Z,39712.00
2019-06-01T11:10:31.156Z,39520.00
2019-06-01T11:11:31.148Z,40352.00
2019-06-01T11:12:31.139Z,41728.00
2019-06-01T11:13:31.127Z,42752.00
2019-06-01T11:14:31.118Z,21376.00
2019-06-01T11:15:31.108Z,19840.00
2019-06-01T11:16:31.099Z,38080.00
2019-06-01T11:17:31.089Z,33472.00
2019-06-01T11:18:31.077Z,41632.00
2019-06-01T11:19:31.064Z,40832.00
2019-06-01T11:20:31.057Z,41568.00
2019-06-01T11:21:31.046Z,39808.00
2019-06-01T11:22:31.049Z,42016.00
2019-06-01T11:23:31.031Z,43072.00
2019-06-01T11:24:31.016Z,40480.00
2019-06-01T11:25:31.011Z,38880.00
2019-06-01T11:26:30.997Z,43808.00
2019-06-01T11:27:30.988Z,44544.00
2019-06-01T11:28:30.982Z,45088.00
2019-06-01T11:29:30.967Z,44256.00
2019-06-01T11:30:30.959Z,43840.00
2019-06-01T11:31:30.950Z,44320.00
2019-06-01T11:32:30.941Z,44928.00
2019-06-01T11:33:30.937Z,44736.00
2019-06-01T11:34:30.923Z,43616.00
2019-06-01T11:35:31.011Z,43840.00
2019-06-01T11:36:30.905Z,43616.00
2019-06-01T11:37:30.903Z,43904.00
2019-06-01T11:38:30.888Z,44640.00
2019-06-01T11:39:30.878Z,43776.00
2019-06-01T11:40:30.871Z,43392.00
2019-06-01T11:41:30.860Z,42976.00
2019-06-01T11:42:30.854Z,31776.00
2019-06-01T11:43:30.844Z,36832.00
2019-06-01T11:44:30.855Z,31648.00
2019-06-01T11:45:30.824Z,43264.00
2019-06-01T11:46:30.816Z,42656.00
2019-06-01T11:47:30.807Z,42880.00
2019-06-01T11:48:30.797Z,44416.00
2019-06-01T11:49:30.787Z,44992.00
2019-06-01T11:50:30.777Z,14700.00
2019-06-01T11:51:30.779Z,14548.00
2019-06-01T11:52:30.757Z,19040.00
2019-06-01T11:53:30.747Z,45120.00
2019-06-01T11:54:30.736Z,46144.00
2019-06-01T11:55:30.742Z,44928.00
2019-06-01T11:56:30.718Z,43488.00
2019-06-01T11:57:30.707Z,31264.00
2019-06-01T11:58:30.695Z,41120.00
2019-06-01T11:59:30.688Z,41600.00
2019-06-01T12:00:30.676Z,40928.00
2019-06-01T12:01:30.669Z,40800.00
2019-06-01T12:02:30.655Z,40192.00
2019-06-01T12:03:30.646Z,40256.00
2019-06-01T12:04:30.636Z,40256.00
2019-06-01T12:05:30.625Z,40256.00
2019-06-01T12:06:30.617Z,39744.00
2019-06-01T12:07:30.607Z,40128.00
2019-06-01T12:08:33.953Z,40608.00
2019-06-01T12:09:30.587Z,41152.00
2019-06-01T12:10:30.578Z,41696.00